Matthews, NC

12:51 PM EDT on October 23, 2014 (GMT -0400)
Monroe | Change Station
CLOSE
Current Station
Airport
Location: Monroe,
Elevation: 679 ft
Nearby Weather Stations

Elev 679 ft 35.01 °N, 80.62 °W | Updated 58 minutes ago

Clear
Clear
62 °F
Feels Like 62 °F
N
13
Wind Variable Wind from North

Today
High -- | Low -- °F
--% Chance of Precip.
Yesterday
High -- | Low -- °F
Precip. -- in
7:35 AM 6:38 PM
Waning Crescent, 0% visible
Pressure 30.10 in
Visibility 10.0 miles
Clouds Clear
Dew Point 39 °F
Humidity 43%
Rainfall 0.00 in
Snow Depth Not available.
UV 5 out of 12
Pollen 2.80 out of 12
Ozone Good
PM2.5 Good
Flu Activity Sporadic
METAR KEQY 231553Z AUTO 35011KT 10SM CLR 17/04 A3007 RMK AO2 SLP191 T01670039

More Conditions Fewer Conditions

Pressure 30.10 in
Visibility 10.0 miles
Clouds Clear
Dew Point 39 °F
Humidity 43%
Rainfall 0.00 in
Snow Depth Not available.
UV 5 out of 12
Pollen 2.80 out of 12
Ozone Good
PM2.5 Good
Flu Activity Sporadic
METAR KEQY 231553Z AUTO 35011KT 10SM CLR 17/04 A3007 RMK AO2 SLP191 T01670039

More Conditions Fewer Conditions

10-Day Weather Forecast

Almanac

Astronomy

Oct. 23, 2014 Rise Set
Actual Time 7:35 AM EDT 6:38 PM EDT
Civil Twilight 7:09 AM EDT 7:03 PM EDT
Nautical Twilight 6:40 AM EDT 7:33 PM EDT
Astronomical Twilight 6:10 AM EDT 8:02 PM EDT
Moon 7:14 AM EDT 6:38 PM EDT
Length of Visible Light 11h 53m
Length of Day
11h 02m
Tomorrow will be 2m 3s shorter.
Waning Crescent, 0% of the Moon is Illuminated
Today
Waning Crescent
Oct 23
New
Oct 30
First Quarter
Nov 6
Full
Nov 14
Last Quarter

Today's Extremes

State Highs State Lows

Community

WunderPhotos

Upload Photos

1,764,308 photos uploaded!

WunderBlogs® & News

Nearby

Air Quality

  Air Quality AQ Index Pollutant
Yesterday Good
OZONE
Yesterday Good
PM2.5
Current Good
PM2.5
Current Good
OZONE
Thursday Good
PM2.5
Thursday Good
OZONE
Friday Good
OZONE
Friday Good
PM2.5
Saturday Good
OZONE
Saturday Good
PM2.5
Sunday Good
OZONE
Sunday Good
PM2.5

Snow Depth

Station Depth Elevation
No new snow has been reported.

Earthquake Activity

City Distance Mag. Time & Date
No recent earthquake activity has been reported nearby.
Minimum magnitude displayed is 2.5.

Coastal Water Temperatures

Place Temperature
No Stations Reporting

Nearby Weather Stations